sensor_id;sensor_type;location;lat;lon;timestamp;P1;durP1;ratioP1;P2;durP2;ratioP2
16804;SDS011;8520;50.102;20.010;2022-08-03T00:01:04;55.35;;;52.10;;
16804;SDS011;8520;50.102;20.010;2022-08-03T00:03:53;56.65;;;53.33;;
16804;SDS011;8520;50.102;20.010;2022-08-03T00:06:41;57.50;;;54.13;;
16804;SDS011;8520;50.102;20.010;2022-08-03T00:09:31;57.10;;;53.63;;
16804;SDS011;8520;50.102;20.010;2022-08-03T00:12:21;58.05;;;54.53;;
16804;SDS011;8520;50.102;20.010;2022-08-03T00:15:10;58.20;;;54.83;;
16804;SDS011;8520;50.102;20.010;2022-08-03T00:18:02;59.85;;;56.35;;
16804;SDS011;8520;50.102;20.010;2022-08-03T00:20:51;61.22;;;57.53;;
16804;SDS011;8520;50.102;20.010;2022-08-03T00:23:39;59.63;;;56.22;;
16804;SDS011;8520;50.102;20.010;2022-08-03T00:26:39;62.88;;;59.13;;
16804;SDS011;8520;50.102;20.010;2022-08-03T00:29:28;62.90;;;59.17;;
16804;SDS011;8520;50.102;20.010;2022-08-03T00:32:16;64.03;;;60.22;;
16804;SDS011;8520;50.102;20.010;2022-08-03T00:35:09;63.70;;;59.80;;
16804;SDS011;8520;50.102;20.010;2022-08-03T00:38:19;63.05;;;59.45;;
16804;SDS011;8520;50.102;20.010;2022-08-03T00:41:07;63.92;;;60.20;;
16804;SDS011;8520;50.102;20.010;2022-08-03T00:43:57;63.58;;;59.90;;
16804;SDS011;8520;50.102;20.010;2022-08-03T00:46:45;65.47;;;61.65;;
16804;SDS011;8520;50.102;20.010;2022-08-03T00:49:34;67.25;;;63.35;;
16804;SDS011;8520;50.102;20.010;2022-08-03T00:52:22;68.15;;;64.15;;
16804;SDS011;8520;50.102;20.010;2022-08-03T00:55:11;70.20;;;65.93;;
16804;SDS011;8520;50.102;20.010;2022-08-03T00:58:00;69.88;;;65.55;;
16804;SDS011;8520;50.102;20.010;2022-08-03T01:00:53;69.20;;;64.88;;
16804;SDS011;8520;50.102;20.010;2022-08-03T01:03:42;70.95;;;66.75;;
16804;SDS011;8520;50.102;20.010;2022-08-03T01:06:32;72.93;;;68.47;;
16804;SDS011;8520;50.102;20.010;2022-08-03T01:09:29;76.50;;;72.00;;
16804;SDS011;8520;50.102;20.010;2022-08-03T01:12:28;78.88;;;74.00;;
16804;SDS011;8520;50.102;20.010;2022-08-03T01:15:24;82.65;;;77.60;;
16804;SDS011;8520;50.102;20.010;2022-08-03T01:18:19;85.57;;;80.45;;
16804;SDS011;8520;50.102;20.010;2022-08-03T01:21:13;88.20;;;82.65;;
16804;SDS011;8520;50.102;20.010;2022-08-03T01:24:13;88.40;;;82.88;;
16804;SDS011;8520;50.102;20.010;2022-08-03T01:27:11;91.47;;;85.88;;
16804;SDS011;8520;50.102;20.010;2022-08-03T01:30:06;91.90;;;86.13;;
16804;SDS011;8520;50.102;20.010;2022-08-03T01:32:57;92.07;;;86.30;;
16804;SDS011;8520;50.102;20.010;2022-08-03T01:35:49;91.00;;;85.15;;
16804;SDS011;8520;50.102;20.010;2022-08-03T01:38:43;89.28;;;83.82;;
16804;SDS011;8520;50.102;20.010;2022-08-03T01:41:39;91.32;;;85.53;;
16804;SDS011;8520;50.102;20.010;2022-08-03T01:44:32;89.55;;;84.15;;
16804;SDS011;8520;50.102;20.010;2022-08-03T01:47:26;89.20;;;83.75;;
16804;SDS011;8520;50.102;20.010;2022-08-03T01:50:18;90.75;;;85.15;;
16804;SDS011;8520;50.102;20.010;2022-08-03T01:53:08;91.40;;;85.78;;
16804;SDS011;8520;50.102;20.010;2022-08-03T01:56:00;92.15;;;86.70;;
16804;SDS011;8520;50.102;20.010;2022-08-03T01:58:51;93.40;;;87.75;;
16804;SDS011;8520;50.102;20.010;2022-08-03T02:01:41;91.63;;;85.70;;
16804;SDS011;8520;50.102;20.010;2022-08-03T02:04:53;90.32;;;85.00;;
16804;SDS011;8520;50.102;20.010;2022-08-03T02:07:43;89.55;;;84.25;;
16804;SDS011;8520;50.102;20.010;2022-08-03T02:10:33;89.88;;;84.03;;
16804;SDS011;8520;50.102;20.010;2022-08-03T02:13:23;88.05;;;82.53;;
16804;SDS011;8520;50.102;20.010;2022-08-03T02:16:13;85.30;;;80.38;;
16804;SDS011;8520;50.102;20.010;2022-08-03T02:19:03;86.15;;;80.38;;
16804;SDS011;8520;50.102;20.010;2022-08-03T02:21:54;82.38;;;77.50;;
16804;SDS011;8520;50.102;20.010;2022-08-03T02:24:47;84.65;;;79.55;;
16804;SDS011;8520;50.102;20.010;2022-08-03T02:27:37;85.22;;;80.20;;
16804;SDS011;8520;50.102;20.010;2022-08-03T02:30:31;82.85;;;77.85;;
16804;SDS011;8520;50.102;20.010;2022-08-03T02:33:25;82.35;;;77.25;;
16804;SDS011;8520;50.102;20.010;2022-08-03T02:36:19;84.00;;;79.00;;
16804;SDS011;8520;50.102;20.010;2022-08-03T02:39:14;84.03;;;79.00;;
16804;SDS011;8520;50.102;20.010;2022-08-03T02:42:06;81.65;;;76.70;;
16804;SDS011;8520;50.102;20.010;2022-08-03T02:44:59;81.85;;;76.97;;
16804;SDS011;8520;50.102;20.010;2022-08-03T02:47:52;80.78;;;75.88;;
16804;SDS011;8520;50.102;20.010;2022-08-03T02:50:50;78.88;;;74.28;;
16804;SDS011;8520;50.102;20.010;2022-08-03T02:53:41;78.57;;;73.97;;
16804;SDS011;8520;50.102;20.010;2022-08-03T02:56:33;77.47;;;72.75;;
16804;SDS011;8520;50.102;20.010;2022-08-03T02:59:23;77.32;;;72.60;;
16804;SDS011;8520;50.102;20.010;2022-08-03T03:02:13;78.07;;;73.38;;
16804;SDS011;8520;50.102;20.010;2022-08-03T03:05:03;77.70;;;73.03;;
16804;SDS011;8520;50.102;20.010;2022-08-03T03:08:13;79.05;;;74.45;;
16804;SDS011;8520;50.102;20.010;2022-08-03T03:11:04;80.22;;;75.43;;
16804;SDS011;8520;50.102;20.010;2022-08-03T03:13:57;80.72;;;75.78;;
16804;SDS011;8520;50.102;20.010;2022-08-03T03:16:46;83.32;;;78.07;;
16804;SDS011;8520;50.102;20.010;2022-08-03T03:19:43;82.80;;;77.90;;
16804;SDS011;8520;50.102;20.010;2022-08-03T03:22:32;85.10;;;79.93;;
16804;SDS011;8520;50.102;20.010;2022-08-03T03:25:26;88.38;;;83.13;;
16804;SDS011;8520;50.102;20.010;2022-08-03T03:28:15;89.32;;;84.03;;
16804;SDS011;8520;50.102;20.010;2022-08-03T03:31:06;90.20;;;84.65;;
16804;SDS011;8520;50.102;20.010;2022-08-03T03:33:55;89.88;;;84.55;;
16804;SDS011;8520;50.102;20.010;2022-08-03T03:36:45;92.05;;;86.22;;
16804;SDS011;8520;50.102;20.010;2022-08-03T03:39:33;89.50;;;84.05;;
16804;SDS011;8520;50.102;20.010;2022-08-03T03:42:23;87.13;;;81.90;;
16804;SDS011;8520;50.102;20.010;2022-08-03T03:45:12;85.43;;;80.43;;
16804;SDS011;8520;50.102;20.010;2022-08-03T03:48:03;85.03;;;80.10;;
16804;SDS011;8520;50.102;20.010;2022-08-03T03:50:52;86.55;;;81.13;;
16804;SDS011;8520;50.102;20.010;2022-08-03T03:53:53;87.78;;;82.57;;
16804;SDS011;8520;50.102;20.010;2022-08-03T03:56:42;88.57;;;83.32;;
16804;SDS011;8520;50.102;20.010;2022-08-03T03:59:30;87.18;;;82.13;;
16804;SDS011;8520;50.102;20.010;2022-08-03T04:02:21;90.90;;;85.38;;
16804;SDS011;8520;50.102;20.010;2022-08-03T04:05:12;90.22;;;84.88;;
16804;SDS011;8520;50.102;20.010;2022-08-03T04:08:18;88.88;;;83.70;;
16804;SDS011;8520;50.102;20.010;2022-08-03T04:11:29;91.22;;;85.82;;
16804;SDS011;8520;50.102;20.010;2022-08-03T04:14:22;88.05;;;82.95;;
16804;SDS011;8520;50.102;20.010;2022-08-03T04:17:14;88.22;;;82.70;;
16804;SDS011;8520;50.102;20.010;2022-08-03T04:20:04;86.00;;;80.63;;
16804;SDS011;8520;50.102;20.010;2022-08-03T04:22:55;84.03;;;79.03;;
16804;SDS011;8520;50.102;20.010;2022-08-03T04:25:47;78.43;;;73.72;;
16804;SDS011;8520;50.102;20.010;2022-08-03T04:28:38;75.10;;;70.75;;
16804;SDS011;8520;50.102;20.010;2022-08-03T04:31:28;76.30;;;71.75;;
16804;SDS011;8520;50.102;20.010;2022-08-03T04:34:18;71.82;;;67.63;;
16804;SDS011;8520;50.102;20.010;2022-08-03T04:37:08;71.70;;;67.50;;
16804;SDS011;8520;50.102;20.010;2022-08-03T04:40:00;69.03;;;64.93;;
16804;SDS011;8520;50.102;20.010;2022-08-03T04:42:53;66.63;;;62.45;;
16804;SDS011;8520;50.102;20.010;2022-08-03T04:45:43;65.45;;;61.55;;
16804;SDS011;8520;50.102;20.010;2022-08-03T04:48:34;65.45;;;61.63;;
16804;SDS011;8520;50.102;20.010;2022-08-03T04:51:23;65.57;;;61.65;;
16804;SDS011;8520;50.102;20.010;2022-08-03T04:54:13;62.17;;;58.05;;
16804;SDS011;8520;50.102;20.010;2022-08-03T04:57:03;61.63;;;57.67;;
16804;SDS011;8520;50.102;20.010;2022-08-03T04:59:52;59.17;;;55.80;;
16804;SDS011;8520;50.102;20.010;2022-08-03T05:02:48;60.25;;;56.47;;
16804;SDS011;8520;50.102;20.010;2022-08-03T05:05:36;60.10;;;56.45;;
16804;SDS011;8520;50.102;20.010;2022-08-03T05:08:36;57.42;;;54.13;;
16804;SDS011;8520;50.102;20.010;2022-08-03T05:11:34;58.58;;;54.95;;
16804;SDS011;8520;50.102;20.010;2022-08-03T05:14:26;59.47;;;55.58;;
16804;SDS011;8520;50.102;20.010;2022-08-03T05:17:14;57.35;;;54.00;;
16804;SDS011;8520;50.102;20.010;2022-08-03T05:20:03;57.30;;;53.85;;
16804;SDS011;8520;50.102;20.010;2022-08-03T05:22:52;58.55;;;54.35;;
16804;SDS011;8520;50.102;20.010;2022-08-03T05:25:41;57.75;;;54.10;;
16804;SDS011;8520;50.102;20.010;2022-08-03T05:28:35;57.00;;;53.60;;
16804;SDS011;8520;50.102;20.010;2022-08-03T05:31:25;55.28;;;52.15;;
16804;SDS011;8520;50.102;20.010;2022-08-03T05:34:14;55.20;;;51.65;;
16804;SDS011;8520;50.102;20.010;2022-08-03T05:37:02;56.08;;;52.53;;
16804;SDS011;8520;50.102;20.010;2022-08-03T05:39:50;53.33;;;50.22;;
16804;SDS011;8520;50.102;20.010;2022-08-03T05:42:39;51.97;;;48.88;;
16804;SDS011;8520;50.102;20.010;2022-08-03T05:45:27;50.72;;;47.63;;
16804;SDS011;8520;50.102;20.010;2022-08-03T05:48:17;49.50;;;46.50;;
16804;SDS011;8520;50.102;20.010;2022-08-03T05:51:06;47.95;;;44.97;;
16804;SDS011;8520;50.102;20.010;2022-08-03T05:53:57;48.75;;;45.45;;
16804;SDS011;8520;50.102;20.010;2022-08-03T05:56:46;46.05;;;43.28;;
16804;SDS011;8520;50.102;20.010;2022-08-03T05:59:34;46.83;;;43.70;;
16804;SDS011;8520;50.102;20.010;2022-08-03T06:02:43;45.15;;;42.25;;
16804;SDS011;8520;50.102;20.010;2022-08-03T06:05:33;44.30;;;41.10;;
16804;SDS011;8520;50.102;20.010;2022-08-03T06:08:29;43.40;;;40.65;;
16804;SDS011;8520;50.102;20.010;2022-08-03T06:11:17;45.75;;;42.47;;
16804;SDS011;8520;50.102;20.010;2022-08-03T06:14:06;44.47;;;41.38;;
16804;SDS011;8520;50.102;20.010;2022-08-03T06:16:54;42.20;;;39.25;;
16804;SDS011;8520;50.102;20.010;2022-08-03T06:19:43;39.55;;;36.95;;
16804;SDS011;8520;50.102;20.010;2022-08-03T06:22:33;39.53;;;37.13;;
16804;SDS011;8520;50.102;20.010;2022-08-03T06:25:36;41.28;;;38.13;;
16804;SDS011;8520;50.102;20.010;2022-08-03T06:28:24;39.38;;;36.65;;
16804;SDS011;8520;50.102;20.010;2022-08-03T06:31:33;39.60;;;36.40;;
16804;SDS011;8520;50.102;20.010;2022-08-03T06:34:21;39.65;;;36.83;;
16804;SDS011;8520;50.102;20.010;2022-08-03T06:37:21;37.80;;;35.38;;
16804;SDS011;8520;50.102;20.010;2022-08-03T06:40:12;36.45;;;33.67;;
16804;SDS011;8520;50.102;20.010;2022-08-03T06:43:11;35.72;;;33.25;;
16804;SDS011;8520;50.102;20.010;2022-08-03T06:46:02;34.22;;;31.73;;
16804;SDS011;8520;50.102;20.010;2022-08-03T06:48:51;34.33;;;31.85;;
16804;SDS011;8520;50.102;20.010;2022-08-03T06:51:39;30.85;;;28.85;;
16804;SDS011;8520;50.102;20.010;2022-08-03T06:54:48;30.05;;;28.10;;
16804;SDS011;8520;50.102;20.010;2022-08-03T06:57:39;30.55;;;28.65;;
16804;SDS011;8520;50.102;20.010;2022-08-03T07:00:27;32.10;;;29.83;;
16804;SDS011;8520;50.102;20.010;2022-08-03T07:03:16;31.88;;;29.77;;
16804;SDS011;8520;50.102;20.010;2022-08-03T07:06:05;30.10;;;28.15;;
16804;SDS011;8520;50.102;20.010;2022-08-03T07:08:53;28.85;;;27.05;;
16804;SDS011;8520;50.102;20.010;2022-08-03T07:11:45;29.15;;;27.27;;
16804;SDS011;8520;50.102;20.010;2022-08-03T07:14:35;27.98;;;26.17;;
16804;SDS011;8520;50.102;20.010;2022-08-03T07:17:23;28.38;;;26.33;;
16804;SDS011;8520;50.102;20.010;2022-08-03T07:20:12;27.65;;;25.40;;
16804;SDS011;8520;50.102;20.010;2022-08-03T07:23:03;26.30;;;24.70;;
16804;SDS011;8520;50.102;20.010;2022-08-03T07:25:51;26.90;;;25.30;;
16804;SDS011;8520;50.102;20.010;2022-08-03T07:28:40;27.02;;;25.38;;
16804;SDS011;8520;50.102;20.010;2022-08-03T07:31:29;27.73;;;25.65;;
16804;SDS011;8520;50.102;20.010;2022-08-03T07:34:20;25.58;;;23.92;;
16804;SDS011;8520;50.102;20.010;2022-08-03T07:37:08;26.33;;;24.63;;
16804;SDS011;8520;50.102;20.010;2022-08-03T07:39:57;26.85;;;24.90;;
16804;SDS011;8520;50.102;20.010;2022-08-03T07:42:46;26.45;;;24.67;;
16804;SDS011;8520;50.102;20.010;2022-08-03T07:45:39;24.58;;;23.02;;
16804;SDS011;8520;50.102;20.010;2022-08-03T07:48:29;24.98;;;22.92;;
16804;SDS011;8520;50.102;20.010;2022-08-03T07:51:17;23.02;;;21.63;;
16804;SDS011;8520;50.102;20.010;2022-08-03T07:54:06;22.70;;;21.08;;
16804;SDS011;8520;50.102;20.010;2022-08-03T07:56:56;19.85;;;18.75;;
16804;SDS011;8520;50.102;20.010;2022-08-03T07:59:44;20.42;;;19.02;;
16804;SDS011;8520;50.102;20.010;2022-08-03T08:02:57;19.92;;;18.65;;
16804;SDS011;8520;50.102;20.010;2022-08-03T08:05:47;18.95;;;17.63;;
16804;SDS011;8520;50.102;20.010;2022-08-03T08:08:36;17.48;;;16.35;;
16804;SDS011;8520;50.102;20.010;2022-08-03T08:11:25;17.70;;;16.70;;
16804;SDS011;8520;50.102;20.010;2022-08-03T08:14:13;15.70;;;14.70;;
16804;SDS011;8520;50.102;20.010;2022-08-03T08:17:02;14.95;;;14.13;;
16804;SDS011;8520;50.102;20.010;2022-08-03T08:19:53;16.98;;;15.88;;
16804;SDS011;8520;50.102;20.010;2022-08-03T08:22:45;16.48;;;15.43;;
16804;SDS011;8520;50.102;20.010;2022-08-03T08:25:36;16.08;;;14.88;;
16804;SDS011;8520;50.102;20.010;2022-08-03T08:28:24;16.63;;;15.52;;
16804;SDS011;8520;50.102;20.010;2022-08-03T08:31:19;14.30;;;13.50;;
16804;SDS011;8520;50.102;20.010;2022-08-03T08:34:07;15.30;;;14.20;;
16804;SDS011;8520;50.102;20.010;2022-08-03T08:36:56;15.13;;;14.13;;
16804;SDS011;8520;50.102;20.010;2022-08-03T08:39:46;14.57;;;13.40;;
16804;SDS011;8520;50.102;20.010;2022-08-03T08:42:35;13.93;;;13.02;;
16804;SDS011;8520;50.102;20.010;2022-08-03T08:45:30;14.65;;;13.50;;
16804;SDS011;8520;50.102;20.010;2022-08-03T08:48:21;13.95;;;13.00;;
16804;SDS011;8520;50.102;20.010;2022-08-03T08:51:12;13.50;;;12.60;;
16804;SDS011;8520;50.102;20.010;2022-08-03T08:54:01;14.95;;;13.80;;
16804;SDS011;8520;50.102;20.010;2022-08-03T08:56:54;14.63;;;13.52;;
16804;SDS011;8520;50.102;20.010;2022-08-03T08:59:45;13.38;;;12.57;;
16804;SDS011;8520;50.102;20.010;2022-08-03T09:02:37;14.82;;;13.73;;
16804;SDS011;8520;50.102;20.010;2022-08-03T09:05:28;13.85;;;12.65;;
16804;SDS011;8520;50.102;20.010;2022-08-03T09:08:38;13.50;;;12.60;;
16804;SDS011;8520;50.102;20.010;2022-08-03T09:11:27;14.93;;;13.75;;
16804;SDS011;8520;50.102;20.010;2022-08-03T09:14:37;14.27;;;13.30;;
16804;SDS011;8520;50.102;20.010;2022-08-03T09:17:46;12.80;;;11.77;;
16804;SDS011;8520;50.102;20.010;2022-08-03T09:20:37;14.43;;;13.30;;
16804;SDS011;8520;50.102;20.010;2022-08-03T09:23:26;13.63;;;12.68;;
16804;SDS011;8520;50.102;20.010;2022-08-03T09:26:49;14.05;;;13.05;;
16804;SDS011;8520;50.102;20.010;2022-08-03T09:29:41;13.77;;;12.77;;
16804;SDS011;8520;50.102;20.010;2022-08-03T09:32:34;13.48;;;12.57;;
16804;SDS011;8520;50.102;20.010;2022-08-03T09:35:25;13.38;;;12.48;;
16804;SDS011;8520;50.102;20.010;2022-08-03T09:38:34;14.02;;;12.90;;
16804;SDS011;8520;50.102;20.010;2022-08-03T09:41:22;13.30;;;12.40;;
16804;SDS011;8520;50.102;20.010;2022-08-03T09:44:11;12.77;;;11.75;;
16804;SDS011;8520;50.102;20.010;2022-08-03T09:47:14;12.68;;;11.88;;
16804;SDS011;8520;50.102;20.010;2022-08-03T09:50:04;13.18;;;12.32;;
16804;SDS011;8520;50.102;20.010;2022-08-03T09:52:54;12.98;;;12.07;;
16804;SDS011;8520;50.102;20.010;2022-08-03T09:55:49;12.75;;;11.80;;
16804;SDS011;8520;50.102;20.010;2022-08-03T09:59:01;13.68;;;11.60;;
16804;SDS011;8520;50.102;20.010;2022-08-03T10:01:50;12.50;;;11.75;;
16804;SDS011;8520;50.102;20.010;2022-08-03T10:04:47;11.90;;;11.15;;
16804;SDS011;8520;50.102;20.010;2022-08-03T10:07:43;12.15;;;11.35;;
16804;SDS011;8520;50.102;20.010;2022-08-03T10:10:40;12.80;;;11.55;;
16804;SDS011;8520;50.102;20.010;2022-08-03T10:13:29;11.18;;;10.38;;
16804;SDS011;8520;50.102;20.010;2022-08-03T10:16:18;12.10;;;10.82;;
16804;SDS011;8520;50.102;20.010;2022-08-03T10:19:11;12.10;;;11.10;;
16804;SDS011;8520;50.102;20.010;2022-08-03T10:22:03;12.43;;;11.40;;
16804;SDS011;8520;50.102;20.010;2022-08-03T10:24:55;11.18;;;10.57;;
16804;SDS011;8520;50.102;20.010;2022-08-03T10:27:46;11.70;;;10.93;;
16804;SDS011;8520;50.102;20.010;2022-08-03T10:30:40;11.20;;;10.50;;
16804;SDS011;8520;50.102;20.010;2022-08-03T10:33:31;12.02;;;11.10;;
16804;SDS011;8520;50.102;20.010;2022-08-03T10:36:37;11.02;;;10.18;;
16804;SDS011;8520;50.102;20.010;2022-08-03T10:39:29;11.40;;;10.57;;
16804;SDS011;8520;50.102;20.010;2022-08-03T10:42:22;11.20;;;10.25;;
16804;SDS011;8520;50.102;20.010;2022-08-03T10:45:13;11.18;;;10.27;;
16804;SDS011;8520;50.102;20.010;2022-08-03T10:48:06;11.55;;;10.52;;
16804;SDS011;8520;50.102;20.010;2022-08-03T10:50:56;12.48;;;11.57;;
16804;SDS011;8520;50.102;20.010;2022-08-03T10:53:44;11.60;;;10.77;;
16804;SDS011;8520;50.102;20.010;2022-08-03T10:56:42;11.57;;;10.43;;
16804;SDS011;8520;50.102;20.010;2022-08-03T11:00:00;10.57;;;9.55;;
16804;SDS011;8520;50.102;20.010;2022-08-03T11:03:04;11.57;;;10.30;;
16804;SDS011;8520;50.102;20.010;2022-08-03T11:06:13;11.65;;;9.77;;
16804;SDS011;8520;50.102;20.010;2022-08-03T11:09:17;10.52;;;9.40;;
16804;SDS011;8520;50.102;20.010;2022-08-03T11:12:19;11.52;;;9.82;;
16804;SDS011;8520;50.102;20.010;2022-08-03T11:15:17;10.38;;;9.50;;
16804;SDS011;8520;50.102;20.010;2022-08-03T11:18:20;17.25;;;9.57;;
16804;SDS011;8520;50.102;20.010;2022-08-03T11:21:12;9.60;;;9.00;;
16804;SDS011;8520;50.102;20.010;2022-08-03T11:24:01;9.45;;;8.80;;
16804;SDS011;8520;50.102;20.010;2022-08-03T11:27:02;9.68;;;9.02;;
16804;SDS011;8520;50.102;20.010;2022-08-03T11:30:06;8.23;;;7.75;;
16804;SDS011;8520;50.102;20.010;2022-08-03T11:32:58;8.35;;;7.65;;
16804;SDS011;8520;50.102;20.010;2022-08-03T11:35:56;8.20;;;7.55;;
16804;SDS011;8520;50.102;20.010;2022-08-03T11:45:26;8.02;;;7.53;;
16804;SDS011;8520;50.102;20.010;2022-08-03T11:48:15;8.35;;;7.75;;
16804;SDS011;8520;50.102;20.010;2022-08-03T11:51:04;8.23;;;7.53;;
16804;SDS011;8520;50.102;20.010;2022-08-03T11:53:54;9.13;;;8.30;;
16804;SDS011;8520;50.102;20.010;2022-08-03T11:56:44;9.98;;;7.95;;
16804;SDS011;8520;50.102;20.010;2022-08-03T11:59:34;8.43;;;7.75;;
16804;SDS011;8520;50.102;20.010;2022-08-03T12:02:26;7.65;;;7.05;;
16804;SDS011;8520;50.102;20.010;2022-08-03T12:05:14;8.32;;;7.57;;
16804;SDS011;8520;50.102;20.010;2022-08-03T12:08:03;7.65;;;7.03;;
16804;SDS011;8520;50.102;20.010;2022-08-03T12:10:53;7.97;;;7.43;;
16804;SDS011;8520;50.102;20.010;2022-08-03T12:13:44;7.57;;;7.05;;
16804;SDS011;8520;50.102;20.010;2022-08-03T12:16:53;8.43;;;7.80;;
16804;SDS011;8520;50.102;20.010;2022-08-03T12:19:43;7.70;;;7.20;;
16804;SDS011;8520;50.102;20.010;2022-08-03T12:22:32;7.80;;;7.30;;
16804;SDS011;8520;50.102;20.010;2022-08-03T12:25:22;9.18;;;7.90;;
16804;SDS011;8520;50.102;20.010;2022-08-03T12:28:25;9.93;;;9.20;;
16804;SDS011;8520;50.102;20.010;2022-08-03T12:31:23;10.35;;;9.32;;
16804;SDS011;8520;50.102;20.010;2022-08-03T12:34:11;21.02;;;10.50;;
16804;SDS011;8520;50.102;20.010;2022-08-03T12:37:03;13.77;;;8.20;;
16804;SDS011;8520;50.102;20.010;2022-08-03T12:40:09;9.07;;;8.27;;
16804;SDS011;8520;50.102;20.010;2022-08-03T12:43:09;9.48;;;8.10;;
16804;SDS011;8520;50.102;20.010;2022-08-03T12:46:09;7.97;;;7.28;;
16804;SDS011;8520;50.102;20.010;2022-08-03T12:49:04;7.70;;;7.00;;
16804;SDS011;8520;50.102;20.010;2022-08-03T12:51:55;7.88;;;7.32;;
16804;SDS011;8520;50.102;20.010;2022-08-03T12:54:54;8.55;;;8.00;;
16804;SDS011;8520;50.102;20.010;2022-08-03T12:57:43;7.93;;;7.32;;
16804;SDS011;8520;50.102;20.010;2022-08-03T13:00:32;7.88;;;7.47;;
16804;SDS011;8520;50.102;20.010;2022-08-03T13:03:22;8.55;;;7.88;;
16804;SDS011;8520;50.102;20.010;2022-08-03T13:06:28;8.15;;;7.50;;
16804;SDS011;8520;50.102;20.010;2022-08-03T13:09:16;8.95;;;8.35;;
16804;SDS011;8520;50.102;20.010;2022-08-03T13:12:08;9.20;;;8.40;;
16804;SDS011;8520;50.102;20.010;2022-08-03T13:14:58;8.95;;;8.07;;
16804;SDS011;8520;50.102;20.010;2022-08-03T13:17:47;8.75;;;8.05;;
16804;SDS011;8520;50.102;20.010;2022-08-03T13:20:35;7.63;;;6.95;;
16804;SDS011;8520;50.102;20.010;2022-08-03T13:23:24;7.85;;;7.22;;
16804;SDS011;8520;50.102;20.010;2022-08-03T13:26:12;8.57;;;7.93;;
16804;SDS011;8520;50.102;20.010;2022-08-03T13:29:02;8.65;;;7.95;;
16804;SDS011;8520;50.102;20.010;2022-08-03T13:31:50;6.90;;;6.43;;
16804;SDS011;8520;50.102;20.010;2022-08-03T13:34:39;6.75;;;6.25;;
16804;SDS011;8520;50.102;20.010;2022-08-03T13:37:28;9.05;;;7.10;;
16804;SDS011;8520;50.102;20.010;2022-08-03T13:40:18;8.48;;;7.57;;
16804;SDS011;8520;50.102;20.010;2022-08-03T13:43:15;12.80;;;7.65;;
16804;SDS011;8520;50.102;20.010;2022-08-03T13:46:05;7.53;;;6.82;;
16804;SDS011;8520;50.102;20.010;2022-08-03T13:48:54;7.10;;;6.50;;
16804;SDS011;8520;50.102;20.010;2022-08-03T13:51:42;11.10;;;6.78;;
16804;SDS011;8520;50.102;20.010;2022-08-03T13:54:31;6.72;;;6.18;;
16804;SDS011;8520;50.102;20.010;2022-08-03T13:57:19;6.55;;;6.15;;
16804;SDS011;8520;50.102;20.010;2022-08-03T14:00:28;7.13;;;6.68;;
16804;SDS011;8520;50.102;20.010;2022-08-03T14:03:18;6.93;;;6.25;;
16804;SDS011;8520;50.102;20.010;2022-08-03T14:06:07;6.55;;;6.07;;
16804;SDS011;8520;50.102;20.010;2022-08-03T14:08:55;6.68;;;6.15;;
16804;SDS011;8520;50.102;20.010;2022-08-03T14:11:46;7.20;;;6.60;;
16804;SDS011;8520;50.102;20.010;2022-08-03T14:14:54;7.80;;;7.15;;
16804;SDS011;8520;50.102;20.010;2022-08-03T14:17:47;7.78;;;7.05;;
16804;SDS011;8520;50.102;20.010;2022-08-03T14:20:37;7.00;;;6.40;;
16804;SDS011;8520;50.102;20.010;2022-08-03T14:23:37;8.10;;;6.85;;
16804;SDS011;8520;50.102;20.010;2022-08-03T14:26:27;7.13;;;6.63;;
16804;SDS011;8520;50.102;20.010;2022-08-03T14:29:16;7.30;;;6.80;;
16804;SDS011;8520;50.102;20.010;2022-08-03T14:32:04;6.80;;;6.40;;
16804;SDS011;8520;50.102;20.010;2022-08-03T14:34:58;7.35;;;6.82;;
16804;SDS011;8520;50.102;20.010;2022-08-03T14:37:48;7.60;;;7.07;;
16804;SDS011;8520;50.102;20.010;2022-08-03T14:40:37;7.20;;;6.57;;
16804;SDS011;8520;50.102;20.010;2022-08-03T14:43:26;8.25;;;7.60;;
16804;SDS011;8520;50.102;20.010;2022-08-03T14:46:20;7.05;;;6.35;;
16804;SDS011;8520;50.102;20.010;2022-08-03T14:49:08;6.30;;;6.00;;
16804;SDS011;8520;50.102;20.010;2022-08-03T14:52:16;6.88;;;6.38;;
16804;SDS011;8520;50.102;20.010;2022-08-03T14:55:06;7.10;;;6.70;;
16804;SDS011;8520;50.102;20.010;2022-08-03T14:57:55;7.35;;;6.70;;
16804;SDS011;8520;50.102;20.010;2022-08-03T15:00:44;7.38;;;6.68;;
16804;SDS011;8520;50.102;20.010;2022-08-03T15:03:32;6.95;;;6.45;;
16804;SDS011;8520;50.102;20.010;2022-08-03T15:06:21;6.47;;;6.07;;
16804;SDS011;8520;50.102;20.010;2022-08-03T15:09:09;6.20;;;5.90;;
16804;SDS011;8520;50.102;20.010;2022-08-03T15:12:10;6.28;;;5.97;;
16804;SDS011;8520;50.102;20.010;2022-08-03T15:14:59;8.35;;;5.97;;
16804;SDS011;8520;50.102;20.010;2022-08-03T15:17:47;7.15;;;6.50;;
16804;SDS011;8520;50.102;20.010;2022-08-03T15:20:46;6.78;;;6.43;;
16804;SDS011;8520;50.102;20.010;2022-08-03T15:23:36;6.93;;;6.40;;
16804;SDS011;8520;50.102;20.010;2022-08-03T15:26:25;7.32;;;6.65;;
16804;SDS011;8520;50.102;20.010;2022-08-03T15:29:25;7.70;;;7.13;;
16804;SDS011;8520;50.102;20.010;2022-08-03T15:32:33;7.38;;;6.88;;
16804;SDS011;8520;50.102;20.010;2022-08-03T15:35:22;8.35;;;7.80;;
16804;SDS011;8520;50.102;20.010;2022-08-03T15:38:10;7.13;;;6.60;;
16804;SDS011;8520;50.102;20.010;2022-08-03T15:40:59;7.75;;;7.25;;
16804;SDS011;8520;50.102;20.010;2022-08-03T15:43:47;7.75;;;7.35;;
16804;SDS011;8520;50.102;20.010;2022-08-03T15:46:39;7.30;;;6.80;;
16804;SDS011;8520;50.102;20.010;2022-08-03T15:49:28;7.13;;;6.63;;
16804;SDS011;8520;50.102;20.010;2022-08-03T15:52:16;6.95;;;6.35;;
16804;SDS011;8520;50.102;20.010;2022-08-03T15:55:05;8.07;;;7.40;;
16804;SDS011;8520;50.102;20.010;2022-08-03T15:58:01;7.22;;;6.70;;
16804;SDS011;8520;50.102;20.010;2022-08-03T16:01:09;6.80;;;6.40;;
16804;SDS011;8520;50.102;20.010;2022-08-03T16:04:06;8.00;;;7.28;;
16804;SDS011;8520;50.102;20.010;2022-08-03T16:06:54;7.30;;;6.82;;
16804;SDS011;8520;50.102;20.010;2022-08-03T16:09:43;7.10;;;6.80;;
16804;SDS011;8520;50.102;20.010;2022-08-03T16:12:31;7.85;;;7.20;;
16804;SDS011;8520;50.102;20.010;2022-08-03T16:15:20;8.35;;;7.82;;
16804;SDS011;8520;50.102;20.010;2022-08-03T16:18:08;6.75;;;6.45;;
16804;SDS011;8520;50.102;20.010;2022-08-03T16:20:58;6.80;;;6.40;;
16804;SDS011;8520;50.102;20.010;2022-08-03T16:23:47;7.10;;;6.80;;
16804;SDS011;8520;50.102;20.010;2022-08-03T16:26:36;7.45;;;6.93;;
16804;SDS011;8520;50.102;20.010;2022-08-03T16:29:25;7.53;;;7.03;;
16804;SDS011;8520;50.102;20.010;2022-08-03T16:32:14;7.47;;;6.97;;
16804;SDS011;8520;50.102;20.010;2022-08-03T16:35:03;7.22;;;6.72;;
16804;SDS011;8520;50.102;20.010;2022-08-03T16:37:53;7.40;;;6.70;;
16804;SDS011;8520;50.102;20.010;2022-08-03T16:40:42;8.30;;;7.60;;
16804;SDS011;8520;50.102;20.010;2022-08-03T16:43:31;8.35;;;7.65;;
16804;SDS011;8520;50.102;20.010;2022-08-03T16:46:21;7.72;;;7.03;;
16804;SDS011;8520;50.102;20.010;2022-08-03T16:49:10;7.68;;;7.18;;
16804;SDS011;8520;50.102;20.010;2022-08-03T16:52:18;8.60;;;6.70;;
16804;SDS011;8520;50.102;20.010;2022-08-03T16:55:10;8.48;;;7.68;;
16804;SDS011;8520;50.102;20.010;2022-08-03T16:58:01;9.15;;;8.02;;
16804;SDS011;8520;50.102;20.010;2022-08-03T17:00:51;9.05;;;8.18;;
16804;SDS011;8520;50.102;20.010;2022-08-03T17:03:42;12.20;;;8.77;;
16804;SDS011;8520;50.102;20.010;2022-08-03T17:06:48;9.30;;;8.50;;